createdAt,value
2018-08-07T00:00:03.362Z,21.19
2018-08-07T00:01:03.422Z,21.18
2018-08-07T00:02:03.483Z,21.16
2018-08-07T00:03:03.546Z,21.15
2018-08-07T00:04:03.608Z,21.13
2018-08-07T00:05:03.670Z,20.93
2018-08-07T00:06:03.732Z,21.00
2018-08-07T00:07:03.793Z,20.91
2018-08-07T00:08:03.856Z,20.91
2018-08-07T00:09:03.919Z,20.94
2018-08-07T00:10:03.980Z,20.93
2018-08-07T00:11:04.044Z,20.88
2018-08-07T00:12:04.103Z,20.82
2018-08-07T00:13:04.167Z,20.78
2018-08-07T00:14:04.228Z,20.79
2018-08-07T00:15:04.291Z,20.83
2018-08-07T00:16:04.352Z,20.88
2018-08-07T00:17:04.413Z,20.78
2018-08-07T00:18:04.475Z,20.72
2018-08-07T00:19:04.536Z,20.66
2018-08-07T00:20:04.599Z,20.68
2018-08-07T00:21:04.661Z,20.72
2018-08-07T00:22:04.730Z,20.66
2018-08-07T00:23:04.784Z,20.68
2018-08-07T00:24:04.848Z,20.73
2018-08-07T00:25:05.158Z,20.82
2018-08-07T00:26:04.970Z,20.73
2018-08-07T00:27:05.031Z,20.72
2018-08-07T00:28:05.093Z,20.69
2018-08-07T00:29:05.155Z,20.61
2018-08-07T00:30:05.217Z,20.64
2018-08-07T00:31:05.324Z,20.57
2018-08-07T00:32:05.340Z,20.54
2018-08-07T00:33:05.403Z,20.53
2018-08-07T00:34:05.463Z,20.51
2018-08-07T00:35:05.525Z,20.60
2018-08-07T00:36:05.587Z,20.58
2018-08-07T00:37:05.650Z,20.54
2018-08-07T00:38:05.711Z,20.57
2018-08-07T00:39:05.773Z,20.40
2018-08-07T00:40:05.834Z,20.50
2018-08-07T00:41:05.898Z,20.34
2018-08-07T00:42:05.956Z,20.35
2018-08-07T00:43:06.018Z,20.35
2018-08-07T00:44:06.081Z,20.26
2018-08-07T00:45:06.142Z,20.38
2018-08-07T00:46:06.203Z,20.33
2018-08-07T00:47:06.265Z,20.33
2018-08-07T00:48:06.327Z,20.34
2018-08-07T00:49:06.392Z,20.30
2018-08-07T00:50:06.494Z,20.30
2018-08-07T00:51:06.514Z,20.20
2018-08-07T00:52:06.574Z,20.23
2018-08-07T00:53:06.636Z,20.19
2018-08-07T00:54:06.696Z,20.22
2018-08-07T00:55:07.311Z,20.34
2018-08-07T00:56:06.820Z,20.35
2018-08-07T00:57:06.882Z,20.31
2018-08-07T00:58:06.942Z,20.33
2018-08-07T00:59:07.004Z,20.30
2018-08-07T01:00:07.067Z,20.17
2018-08-07T01:01:07.127Z,20.25
2018-08-07T01:02:07.190Z,20.13
2018-08-07T01:03:07.251Z,20.13
2018-08-07T01:04:07.313Z,20.07
2018-08-07T01:05:07.375Z,20.04
2018-08-07T01:06:07.435Z,20.01
2018-08-07T01:07:07.497Z,19.94
2018-08-07T01:08:07.559Z,20.00
2018-08-07T01:09:07.658Z,20.00
2018-08-07T01:10:07.680Z,19.98
2018-08-07T01:11:07.743Z,19.97
2018-08-07T01:12:07.806Z,20.00
2018-08-07T01:13:07.866Z,20.04
2018-08-07T01:14:07.927Z,20.01
2018-08-07T01:15:07.989Z,20.04
2018-08-07T01:16:08.052Z,19.95
2018-08-07T01:17:08.113Z,19.87
2018-08-07T01:18:08.173Z,19.97
2018-08-07T01:19:08.235Z,19.90
2018-08-07T01:20:08.547Z,19.89
2018-08-07T01:21:08.357Z,19.89
2018-08-07T01:22:08.439Z,19.94
2018-08-07T01:23:08.480Z,19.95
2018-08-07T01:24:08.542Z,20.01
2018-08-07T01:25:08.603Z,20.04
2018-08-07T01:26:08.664Z,20.04
2018-08-07T01:27:08.729Z,20.01
2018-08-07T01:28:08.833Z,20.01
2018-08-07T01:29:08.849Z,19.95
2018-08-07T01:30:08.910Z,19.94
2018-08-07T01:31:08.972Z,20.01
2018-08-07T01:32:09.034Z,19.98
2018-08-07T01:33:09.096Z,20.13
2018-08-07T01:34:09.157Z,19.97
2018-08-07T01:35:09.218Z,19.90
2018-08-07T01:36:09.279Z,20.00
2018-08-07T01:37:09.340Z,19.83
2018-08-07T01:38:09.401Z,19.89
2018-08-07T01:39:09.467Z,19.82
2018-08-07T01:40:09.524Z,19.83
2018-08-07T01:41:09.587Z,19.95
2018-08-07T01:42:09.648Z,19.94
2018-08-07T01:43:09.708Z,19.85
2018-08-07T01:44:09.769Z,19.83
2018-08-07T01:45:09.831Z,19.83
2018-08-07T01:46:09.891Z,19.68
2018-08-07T01:47:09.953Z,19.64
2018-08-07T01:48:10.017Z,19.55
2018-08-07T01:49:10.077Z,19.50
2018-08-07T01:50:10.142Z,19.39
2018-08-07T01:51:10.199Z,19.40
2018-08-07T01:52:10.260Z,19.39
2018-08-07T01:53:10.323Z,19.43
2018-08-07T01:54:10.384Z,19.38
2018-08-07T01:55:10.446Z,19.28
2018-08-07T01:56:10.506Z,19.30
2018-08-07T01:57:10.578Z,19.31
2018-08-07T01:58:10.627Z,19.35
2018-08-07T01:59:10.689Z,19.30
2018-08-07T02:00:10.750Z,19.38
2018-08-07T02:01:10.813Z,19.34
2018-08-07T02:02:10.873Z,19.38
2018-08-07T02:03:10.934Z,19.25
2018-08-07T02:04:10.995Z,19.31
2018-08-07T02:05:11.056Z,19.32
2018-08-07T02:06:11.117Z,19.32
2018-08-07T02:07:11.179Z,19.42
2018-08-07T02:08:11.240Z,19.34
2018-08-07T02:09:11.305Z,19.35
2018-08-07T02:10:11.362Z,19.27
2018-08-07T02:11:11.424Z,19.27
2018-08-07T02:12:11.484Z,19.24
2018-08-07T02:13:11.548Z,19.30
2018-08-07T02:14:11.607Z,19.31
2018-08-07T02:15:11.667Z,19.28
2018-08-07T02:16:11.730Z,19.16
2018-08-07T02:17:11.790Z,19.12
2018-08-07T02:18:11.851Z,19.06
2018-08-07T02:19:11.916Z,19.01
2018-08-07T02:20:11.973Z,19.06
2018-08-07T02:21:12.038Z,19.02
2018-08-07T02:22:12.096Z,19.01
2018-08-07T02:23:12.157Z,18.94
2018-08-07T02:24:12.217Z,19.09
2018-08-07T02:25:12.280Z,19.07
2018-08-07T02:26:12.339Z,19.02
2018-08-07T02:27:12.403Z,19.05
2018-08-07T02:28:12.461Z,18.97
2018-08-07T02:29:12.523Z,18.96
2018-08-07T02:30:12.583Z,18.93
2018-08-07T02:31:12.644Z,19.02
2018-08-07T02:32:12.706Z,18.89
2018-08-07T02:33:12.767Z,18.94
2018-08-07T02:34:12.827Z,18.89
2018-08-07T02:35:12.891Z,19.06
2018-08-07T02:36:12.949Z,18.84
2018-08-07T02:37:13.012Z,18.87
2018-08-07T02:38:13.073Z,18.93
2018-08-07T02:39:13.132Z,18.86
2018-08-07T02:40:13.195Z,18.93
2018-08-07T02:41:13.506Z,18.96
2018-08-07T02:42:13.315Z,18.96
2018-08-07T02:43:13.376Z,18.96
2018-08-07T02:44:13.437Z,19.13
2018-08-07T02:45:13.499Z,19.12
2018-08-07T02:46:13.558Z,19.12
2018-08-07T02:47:13.620Z,18.96
2018-08-07T02:48:13.683Z,18.79
2018-08-07T02:49:13.744Z,18.76
2018-08-07T02:50:13.804Z,18.71
2018-08-07T02:51:13.864Z,18.62
2018-08-07T02:52:13.925Z,18.57
2018-08-07T02:53:13.987Z,18.53
2018-08-07T02:54:14.047Z,18.60
2018-08-07T02:55:14.108Z,18.64
2018-08-07T02:56:14.174Z,18.72
2018-08-07T02:57:14.230Z,18.69
2018-08-07T02:58:14.291Z,18.72
2018-08-07T02:59:14.352Z,18.65
2018-08-07T03:00:14.416Z,18.78
2018-08-07T03:01:14.478Z,18.79
2018-08-07T03:02:14.535Z,18.74
2018-08-07T03:03:14.595Z,18.69
2018-08-07T03:04:14.657Z,18.74
2018-08-07T03:05:14.718Z,18.75
2018-08-07T03:06:14.779Z,18.78
2018-08-07T03:07:14.839Z,18.75
2018-08-07T03:08:14.900Z,18.72
2018-08-07T03:09:14.962Z,18.69
2018-08-07T03:10:15.021Z,18.72
2018-08-07T03:11:15.083Z,18.66
2018-08-07T03:12:15.143Z,18.71
2018-08-07T03:13:15.204Z,18.71
2018-08-07T03:14:15.265Z,18.82
2018-08-07T03:15:15.325Z,18.69
2018-08-07T03:16:15.386Z,18.65
2018-08-07T03:17:15.448Z,18.56
2018-08-07T03:18:15.508Z,18.53
2018-08-07T03:19:15.568Z,18.62
2018-08-07T03:20:15.630Z,18.62
2018-08-07T03:21:15.691Z,18.72
2018-08-07T03:22:15.751Z,18.66
2018-08-07T03:23:15.814Z,18.76
2018-08-07T03:24:15.873Z,18.75
2018-08-07T03:25:15.933Z,18.65
2018-08-07T03:26:15.995Z,18.62
2018-08-07T03:27:16.055Z,18.64
2018-08-07T03:28:16.115Z,18.72
2018-08-07T03:29:16.177Z,18.62
2018-08-07T03:30:16.237Z,18.59
2018-08-07T03:31:16.303Z,18.54
2018-08-07T03:32:16.360Z,18.62
2018-08-07T03:33:16.420Z,18.53
2018-08-07T03:34:16.482Z,18.51
2018-08-07T03:35:16.541Z,18.51
2018-08-07T03:36:16.601Z,18.50
2018-08-07T03:37:16.667Z,18.42
2018-08-07T03:38:16.723Z,18.41
2018-08-07T03:39:16.784Z,18.44
2018-08-07T03:40:16.844Z,18.49
2018-08-07T03:41:16.907Z,18.49
2018-08-07T03:42:16.968Z,18.57
2018-08-07T03:43:17.026Z,18.57
2018-08-07T03:44:17.087Z,18.62
2018-08-07T03:45:17.148Z,18.59
2018-08-07T03:46:17.209Z,18.65
2018-08-07T03:47:17.420Z,18.69
2018-08-07T03:48:17.330Z,18.69
2018-08-07T03:49:17.433Z,18.75
2018-08-07T03:50:17.473Z,18.76
2018-08-07T03:51:17.514Z,18.78
2018-08-07T03:52:17.574Z,18.82
2018-08-07T03:53:17.635Z,18.68
2018-08-07T03:54:17.694Z,18.59
2018-08-07T03:55:17.756Z,18.57
2018-08-07T03:56:17.824Z,18.47
2018-08-07T03:57:17.876Z,18.49
2018-08-07T03:58:17.938Z,18.56
2018-08-07T03:59:17.998Z,18.56
2018-08-07T04:00:18.062Z,18.51
2018-08-07T04:01:18.121Z,18.75
2018-08-07T04:02:18.182Z,18.71
2018-08-07T04:03:18.241Z,18.72
2018-08-07T04:04:18.303Z,18.71
2018-08-07T04:05:18.364Z,18.62
2018-08-07T04:06:18.423Z,18.53
2018-08-07T04:07:18.484Z,18.53
2018-08-07T04:08:18.544Z,18.41
2018-08-07T04:09:18.605Z,18.50
2018-08-07T04:10:18.665Z,18.34
2018-08-07T04:11:18.726Z,18.38
2018-08-07T04:12:18.789Z,18.38
2018-08-07T04:13:18.848Z,18.35
2018-08-07T04:14:18.909Z,18.41
2018-08-07T04:15:18.970Z,18.50
2018-08-07T04:16:19.031Z,18.62
2018-08-07T04:17:19.091Z,18.68
2018-08-07T04:18:19.153Z,18.68
2018-08-07T04:19:19.214Z,18.56
2018-08-07T04:20:19.277Z,18.62
2018-08-07T04:21:19.337Z,18.59
2018-08-07T04:22:19.395Z,18.56
2018-08-07T04:23:19.457Z,18.44
2018-08-07T04:24:19.517Z,18.36
2018-08-07T04:25:19.577Z,18.42
2018-08-07T04:26:19.638Z,18.35
2018-08-07T04:27:19.699Z,18.32
2018-08-07T04:28:19.759Z,18.36
2018-08-07T04:29:19.820Z,18.29
2018-08-07T04:30:19.881Z,18.26
2018-08-07T04:31:19.985Z,18.23
2018-08-07T04:32:20.001Z,18.25
2018-08-07T04:33:20.063Z,18.25
2018-08-07T04:34:20.153Z,18.29
2018-08-07T04:35:20.185Z,18.32
2018-08-07T04:36:20.244Z,18.38
2018-08-07T04:37:20.306Z,18.51
2018-08-07T04:38:20.365Z,18.60
2018-08-07T04:39:20.427Z,18.60
2018-08-07T04:40:20.488Z,18.82
2018-08-07T04:41:20.550Z,18.79
2018-08-07T04:42:20.609Z,18.78
2018-08-07T04:43:20.670Z,18.82
2018-08-07T04:44:20.731Z,18.90
2018-08-07T04:45:20.792Z,18.93
2018-08-07T04:46:20.854Z,18.84
2018-08-07T04:47:20.913Z,18.76
2018-08-07T04:48:20.973Z,18.84
2018-08-07T04:49:21.037Z,18.91
2018-08-07T04:50:21.095Z,18.82
2018-08-07T04:51:21.156Z,18.78
2018-08-07T04:52:21.218Z,18.79
2018-08-07T04:53:21.278Z,18.86
2018-08-07T04:54:21.338Z,18.75
2018-08-07T04:55:21.400Z,18.83
2018-08-07T04:56:21.461Z,18.83
2018-08-07T04:57:21.523Z,18.89
2018-08-07T04:58:21.583Z,18.83
2018-08-07T04:59:21.642Z,18.76
2018-08-07T05:00:21.704Z,18.79
2018-08-07T05:01:21.764Z,18.93
2018-08-07T05:02:21.827Z,18.94
2018-08-07T05:03:21.887Z,19.15
2018-08-07T05:04:21.948Z,19.17
2018-08-07T05:05:22.009Z,19.09
2018-08-07T05:06:22.070Z,19.12
2018-08-07T05:07:22.130Z,19.12
2018-08-07T05:08:22.191Z,19.24
2018-08-07T05:09:22.252Z,19.01
2018-08-07T05:10:22.370Z,19.01
2018-08-07T05:11:22.373Z,19.16
2018-08-07T05:12:22.434Z,19.16
2018-08-07T05:13:22.495Z,19.38
2018-08-07T05:14:22.556Z,19.42
2018-08-07T05:15:22.617Z,19.40
2018-08-07T05:16:22.679Z,19.32
2018-08-07T05:17:23.255Z,19.27
2018-08-07T05:18:22.801Z,19.28
2018-08-07T05:19:22.861Z,19.34
2018-08-07T05:20:22.922Z,19.32
2018-08-07T05:21:22.983Z,19.28
2018-08-07T05:22:23.046Z,19.27
2018-08-07T05:23:23.110Z,19.31
2018-08-07T05:24:23.167Z,19.28
2018-08-07T05:25:23.227Z,19.30
2018-08-07T05:26:23.323Z,19.31
2018-08-07T05:27:23.352Z,19.42
2018-08-07T05:28:23.410Z,19.42
2018-08-07T05:29:23.471Z,19.45
2018-08-07T05:30:23.533Z,19.49
2018-08-07T05:31:23.593Z,19.60
2018-08-07T05:32:23.655Z,19.67
2018-08-07T05:33:23.716Z,19.70
2018-08-07T05:34:23.777Z,19.71
2018-08-07T05:35:23.837Z,19.75
2018-08-07T05:36:23.900Z,19.80
2018-08-07T05:37:23.964Z,19.83
2018-08-07T05:38:24.022Z,19.97
2018-08-07T05:39:24.085Z,19.95
2018-08-07T05:40:24.145Z,20.01
2018-08-07T05:41:24.219Z,20.01
2018-08-07T05:42:24.315Z,19.95
2018-08-07T05:43:24.328Z,20.15
2018-08-07T05:44:24.390Z,20.15
2018-08-07T05:45:24.452Z,20.20
2018-08-07T05:46:24.513Z,20.20
2018-08-07T05:47:24.575Z,20.27
2018-08-07T05:48:24.636Z,20.33
2018-08-07T05:49:25.007Z,20.42
2018-08-07T05:50:24.949Z,20.48
2018-08-07T05:51:24.868Z,20.42
2018-08-07T05:52:24.883Z,20.56
2018-08-07T05:53:24.944Z,20.60
2018-08-07T05:54:25.007Z,20.71
2018-08-07T05:55:25.071Z,20.88
2018-08-07T05:56:25.134Z,20.82
2018-08-07T05:57:25.193Z,20.83
2018-08-07T05:58:25.258Z,20.87
2018-08-07T05:59:25.623Z,20.88
2018-08-07T06:00:25.382Z,20.88
2018-08-07T06:01:25.439Z,20.82
2018-08-07T06:02:25.502Z,20.79
2018-08-07T06:03:25.566Z,20.63
2018-08-07T06:04:25.880Z,20.60
2018-08-07T06:05:25.688Z,20.73
2018-08-07T06:06:25.761Z,20.82
2018-08-07T06:07:25.816Z,20.87
2018-08-07T06:08:25.873Z,20.94
2018-08-07T06:09:25.936Z,21.01
2018-08-07T06:10:25.997Z,21.01
2018-08-07T06:11:26.061Z,21.15
2018-08-07T06:12:26.122Z,21.21
2018-08-07T06:13:26.185Z,21.30
2018-08-07T06:14:26.245Z,21.31
2018-08-07T06:15:26.310Z,21.37
2018-08-07T06:16:26.373Z,21.45
2018-08-07T06:17:26.436Z,21.42
2018-08-07T06:18:26.496Z,21.43
2018-08-07T06:19:26.559Z,21.74
2018-08-07T06:20:26.625Z,21.66
2018-08-07T06:21:26.686Z,21.77
2018-08-07T06:22:26.746Z,21.73
2018-08-07T06:23:26.809Z,21.59
2018-08-07T06:24:26.872Z,21.70
2018-08-07T06:25:26.940Z,21.67
2018-08-07T06:26:26.996Z,21.67
2018-08-07T06:27:27.106Z,21.75
2018-08-07T06:28:27.124Z,21.77
2018-08-07T06:29:27.186Z,21.94
2018-08-07T06:30:27.249Z,21.94
2018-08-07T06:31:27.369Z,22.05
2018-08-07T06:32:27.374Z,22.14
2018-08-07T06:33:27.438Z,22.29
2018-08-07T06:34:27.498Z,22.29
2018-08-07T06:35:27.574Z,22.36
2018-08-07T06:36:27.625Z,22.42
2018-08-07T06:37:27.688Z,22.42
2018-08-07T06:38:27.752Z,22.44
2018-08-07T06:39:27.814Z,22.46
2018-08-07T06:40:27.877Z,22.48
2018-08-07T06:41:27.941Z,22.46
2018-08-07T06:42:28.003Z,22.42
2018-08-07T06:43:28.067Z,22.51
2018-08-07T06:44:28.130Z,22.60
2018-08-07T06:45:28.194Z,22.66
2018-08-07T06:46:28.258Z,22.69
2018-08-07T06:47:28.318Z,22.75
2018-08-07T06:48:28.382Z,22.86
2018-08-07T06:49:28.445Z,22.86
2018-08-07T06:50:28.508Z,22.94
2018-08-07T06:51:28.581Z,23.04
2018-08-07T06:52:28.637Z,23.07
2018-08-07T06:53:28.702Z,23.15
2018-08-07T06:54:28.762Z,23.12
2018-08-07T06:55:28.826Z,23.15
2018-08-07T06:56:28.890Z,23.22
2018-08-07T06:57:28.954Z,23.29
2018-08-07T06:58:29.016Z,23.31
2018-08-07T06:59:29.080Z,23.39
2018-08-07T07:00:29.144Z,23.29
2018-08-07T07:01:29.207Z,23.35
2018-08-07T07:02:29.272Z,23.41
2018-08-07T07:03:29.334Z,23.23
2018-08-07T07:04:29.397Z,23.21
2018-08-07T07:05:29.462Z,23.31
2018-08-07T07:06:29.525Z,23.31
2018-08-07T07:07:29.589Z,23.37
2018-08-07T07:08:29.663Z,23.53
2018-08-07T07:09:29.751Z,23.69
2018-08-07T07:10:29.780Z,23.75
2018-08-07T07:11:29.849Z,23.84
2018-08-07T07:12:29.911Z,23.87
2018-08-07T07:13:29.972Z,23.82
2018-08-07T07:14:30.036Z,23.89
2018-08-07T07:15:30.099Z,23.93
2018-08-07T07:16:30.165Z,23.97
2018-08-07T07:17:30.249Z,23.96
2018-08-07T07:18:30.290Z,24.00
2018-08-07T07:19:30.357Z,24.04
2018-08-07T07:20:30.473Z,24.14
2018-08-07T07:21:30.868Z,24.23
2018-08-07T07:22:30.546Z,24.27
2018-08-07T07:23:30.611Z,24.30
2018-08-07T07:24:30.677Z,24.31
2018-08-07T07:25:30.740Z,24.16
2018-08-07T07:26:30.865Z,24.29
2018-08-07T07:27:30.869Z,24.33
2018-08-07T07:28:30.933Z,24.27
2018-08-07T07:29:31.002Z,24.41
2018-08-07T07:30:31.059Z,24.34
2018-08-07T07:31:31.124Z,24.44
2018-08-07T07:32:31.189Z,24.46
2018-08-07T07:33:31.254Z,24.48
2018-08-07T07:34:31.343Z,24.68
2018-08-07T07:35:31.380Z,24.79
2018-08-07T07:36:31.445Z,24.82
2018-08-07T07:37:31.892Z,24.86
2018-08-07T07:38:31.572Z,24.80
2018-08-07T07:39:31.639Z,24.90
2018-08-07T07:40:31.708Z,24.92
2018-08-07T07:41:31.770Z,25.05
2018-08-07T07:42:31.830Z,25.04
2018-08-07T07:43:31.898Z,25.17
2018-08-07T07:44:31.959Z,25.27
2018-08-07T07:45:32.119Z,25.27
2018-08-07T07:46:32.089Z,25.26
2018-08-07T07:47:32.152Z,25.41
2018-08-07T07:48:32.218Z,25.49
2018-08-07T07:49:32.282Z,25.51
2018-08-07T07:50:32.346Z,25.56
2018-08-07T07:51:32.411Z,25.61
2018-08-07T07:52:32.477Z,25.60
2018-08-07T07:53:32.540Z,25.66
2018-08-07T07:54:32.605Z,25.75
2018-08-07T07:55:32.703Z,25.72
2018-08-07T07:56:32.737Z,25.76
2018-08-07T07:57:32.799Z,25.83
2018-08-07T07:58:32.864Z,25.97
2018-08-07T07:59:32.931Z,26.06
2018-08-07T08:00:32.994Z,26.11
2018-08-07T08:01:33.060Z,26.09
2018-08-07T08:02:33.122Z,26.23
2018-08-07T08:03:33.189Z,26.28
2018-08-07T08:04:33.253Z,26.41
2018-08-07T08:05:33.328Z,26.41
2018-08-07T08:06:33.383Z,26.49
2018-08-07T08:07:33.448Z,26.54
2018-08-07T08:08:33.514Z,26.66
2018-08-07T08:09:33.581Z,26.69
2018-08-07T08:10:33.644Z,26.83
2018-08-07T08:11:33.709Z,26.79
2018-08-07T08:12:33.775Z,26.93
2018-08-07T08:13:33.840Z,26.96
2018-08-07T08:14:33.905Z,26.96
2018-08-07T08:15:33.970Z,27.08
2018-08-07T08:16:34.089Z,27.24
2018-08-07T08:17:34.103Z,27.25
2018-08-07T08:18:34.167Z,27.30
2018-08-07T08:19:34.796Z,27.39
2018-08-07T08:20:34.299Z,27.39
2018-08-07T08:21:34.366Z,27.38
2018-08-07T08:22:34.448Z,27.53
2018-08-07T08:23:34.495Z,27.50
2018-08-07T08:24:34.562Z,27.53
2018-08-07T08:25:34.627Z,27.62
2018-08-07T08:26:34.693Z,27.72
2018-08-07T08:27:34.759Z,27.83
2018-08-07T08:28:34.826Z,27.77
2018-08-07T08:29:35.056Z,27.95
2018-08-07T08:30:34.968Z,28.05
2018-08-07T08:31:35.023Z,28.13
2018-08-07T08:32:35.089Z,28.32
2018-08-07T08:33:35.177Z,28.24
2018-08-07T08:34:35.221Z,28.39
2018-08-07T08:35:35.296Z,28.51
2018-08-07T08:36:35.357Z,28.55
2018-08-07T08:37:35.420Z,28.72
2018-08-07T08:38:35.808Z,28.77
2018-08-07T08:39:35.553Z,28.77
2018-08-07T08:40:35.624Z,28.98
2018-08-07T08:41:35.686Z,29.00
2018-08-07T08:42:35.756Z,29.07
2018-08-07T08:43:36.275Z,29.12
2018-08-07T08:44:35.884Z,29.27
2018-08-07T08:45:35.952Z,29.26
2018-08-07T08:46:36.017Z,29.35
2018-08-07T08:47:36.087Z,29.47
2018-08-07T08:48:36.209Z,29.62
2018-08-07T08:49:36.222Z,29.82
2018-08-07T08:50:36.285Z,29.88
2018-08-07T08:51:36.354Z,30.06
2018-08-07T08:52:36.421Z,30.04
2018-08-07T08:53:36.487Z,29.95
2018-08-07T08:54:36.564Z,30.03
2018-08-07T08:55:36.620Z,30.21
2018-08-07T08:56:36.705Z,30.22
2018-08-07T08:57:36.755Z,30.21
2018-08-07T08:58:36.821Z,30.32
2018-08-07T08:59:36.889Z,30.36
2018-08-07T09:00:36.957Z,30.34
2018-08-07T09:01:37.025Z,30.37
2018-08-07T09:02:37.090Z,30.36
2018-08-07T09:03:37.160Z,30.48
2018-08-07T09:04:37.226Z,30.53
2018-08-07T09:05:37.300Z,30.37
2018-08-07T09:06:37.663Z,30.22
2018-08-07T09:07:37.428Z,30.42
2018-08-07T09:08:37.499Z,30.48
2018-08-07T09:09:37.586Z,30.54
2018-08-07T09:10:37.795Z,30.63
2018-08-07T09:11:37.698Z,30.70
2018-08-07T09:12:37.766Z,30.61
2018-08-07T09:13:37.833Z,30.53
2018-08-07T09:14:37.900Z,30.51
2018-08-07T09:15:37.968Z,30.60
2018-08-07T09:16:38.037Z,30.76
2018-08-07T09:17:38.104Z,30.73
2018-08-07T09:18:38.172Z,30.93
2018-08-07T09:19:38.339Z,30.97
2018-08-07T09:20:38.307Z,31.05
2018-08-07T09:21:38.374Z,31.07
2018-08-07T09:22:38.458Z,31.20
2018-08-07T09:23:38.509Z,31.20
2018-08-07T09:24:38.577Z,31.20
2018-08-07T09:25:39.170Z,31.35
2018-08-07T09:26:45.981Z,31.37
2018-08-07T09:27:38.781Z,31.50
2018-08-07T09:28:38.850Z,31.60
2018-08-07T09:29:38.917Z,31.72
2018-08-07T09:30:38.985Z,31.85
2018-08-07T09:31:39.053Z,31.95
2018-08-07T09:32:39.123Z,31.95
2018-08-07T09:33:39.226Z,32.16
2018-08-07T09:34:39.299Z,32.29
2018-08-07T09:35:39.688Z,32.50
2018-08-07T09:36:39.491Z,32.77
2018-08-07T09:37:39.463Z,32.91
2018-08-07T09:38:39.532Z,32.95
2018-08-07T09:39:39.607Z,32.98
2018-08-07T09:40:39.670Z,33.11
2018-08-07T09:41:39.739Z,33.14
2018-08-07T09:42:39.806Z,33.11
2018-08-07T09:43:39.876Z,33.14
2018-08-07T09:44:39.944Z,33.07
2018-08-07T09:45:40.013Z,33.09
2018-08-07T09:46:40.141Z,33.11
2018-08-07T09:47:40.150Z,33.20
2018-08-07T09:48:40.217Z,33.15
2018-08-07T09:49:40.306Z,33.17
2018-08-07T09:50:40.372Z,33.31
2018-08-07T09:51:40.426Z,33.38
2018-08-07T09:52:40.542Z,33.44
2018-08-07T09:53:40.566Z,33.52
2018-08-07T09:54:40.635Z,33.60
2018-08-07T09:55:40.701Z,33.78
2018-08-07T09:56:40.771Z,33.90
2018-08-07T09:57:40.840Z,34.08
2018-08-07T09:58:40.976Z,34.01
2018-08-07T09:59:40.977Z,33.99
2018-08-07T10:00:41.048Z,33.97
2018-08-07T10:01:41.116Z,34.05
2018-08-07T10:02:41.185Z,34.26
2018-08-07T10:03:41.254Z,34.33
2018-08-07T10:04:41.323Z,34.49
2018-08-07T10:05:41.393Z,34.63
2018-08-07T10:06:41.462Z,34.63
2018-08-07T10:07:41.531Z,34.67
2018-08-07T10:08:41.601Z,34.73
2018-08-07T10:09:41.669Z,34.81
2018-08-07T10:10:41.738Z,34.93
2018-08-07T10:11:41.808Z,35.02
2018-08-07T10:12:41.877Z,34.99
2018-08-07T10:13:41.948Z,35.03
2018-08-07T10:14:42.017Z,35.17
2018-08-07T10:15:42.086Z,35.28
2018-08-07T10:16:42.157Z,35.18
2018-08-07T10:17:42.244Z,35.27
2018-08-07T10:18:42.296Z,35.22
2018-08-07T10:19:42.364Z,34.90
2018-08-07T10:20:42.435Z,34.99
2018-08-07T10:21:42.505Z,35.15
2018-08-07T10:22:42.824Z,35.27
2018-08-07T10:23:42.645Z,35.62
2018-08-07T10:24:42.716Z,35.61
2018-08-07T10:25:42.785Z,35.44
2018-08-07T10:26:42.854Z,35.32
2018-08-07T10:27:42.931Z,35.56
2018-08-07T10:28:42.997Z,35.71
2018-08-07T10:29:43.069Z,35.95
2018-08-07T10:30:43.168Z,36.13
2018-08-07T10:31:43.212Z,36.19
2018-08-07T10:32:43.950Z,36.37
2018-08-07T10:33:43.956Z,36.13
2018-08-07T10:34:43.427Z,36.19
2018-08-07T10:35:43.508Z,36.19
2018-08-07T10:36:43.575Z,36.18
2018-08-07T10:37:43.650Z,36.62
2018-08-07T10:38:43.720Z,36.53
2018-08-07T10:39:43.795Z,36.87
2018-08-07T10:40:43.995Z,37.25
2018-08-07T10:41:43.943Z,37.45
2018-08-07T10:42:44.017Z,37.21
2018-08-07T10:43:44.307Z,37.28
2018-08-07T10:44:44.164Z,37.72
2018-08-07T10:45:44.239Z,38.04
2018-08-07T10:46:44.314Z,38.37
2018-08-07T10:47:44.449Z,38.84
2018-08-07T10:48:44.463Z,38.59
2018-08-07T10:49:44.539Z,38.55
2018-08-07T10:50:44.652Z,38.62
2018-08-07T10:51:44.689Z,38.14
2018-08-07T10:52:44.765Z,37.54
2018-08-07T10:53:44.876Z,37.95
2018-08-07T10:54:44.915Z,38.31
2018-08-07T10:55:44.991Z,38.59
2018-08-07T10:56:45.067Z,38.50
2018-08-07T10:57:45.145Z,38.16
2018-08-07T10:58:45.219Z,38.47
2018-08-07T10:59:45.295Z,38.59
2018-08-07T11:00:45.371Z,38.59
2018-08-07T11:01:45.449Z,38.81
2018-08-07T11:02:45.524Z,38.82
2018-08-07T11:03:45.601Z,38.28
2018-08-07T11:04:45.677Z,37.90
2018-08-07T11:05:45.821Z,38.31
2018-08-07T11:06:45.831Z,38.14
2018-08-07T11:07:45.907Z,37.84
2018-08-07T11:08:45.984Z,37.72
2018-08-07T11:09:46.061Z,37.97
2018-08-07T11:10:46.136Z,38.31
2018-08-07T11:11:46.213Z,38.63
2018-08-07T11:12:46.289Z,38.47
2018-08-07T11:13:46.427Z,38.49
2018-08-07T11:14:46.446Z,37.85
2018-08-07T11:15:46.519Z,37.46
2018-08-07T11:16:46.595Z,37.23
2018-08-07T11:17:46.672Z,37.60
2018-08-07T11:18:46.748Z,37.47
2018-08-07T11:19:46.825Z,38.12
2018-08-07T11:20:46.905Z,38.53
2018-08-07T11:21:46.976Z,38.63
2018-08-07T11:22:47.053Z,38.95
2018-08-07T11:23:47.131Z,39.24
2018-08-07T11:24:47.271Z,39.13
2018-08-07T11:25:47.282Z,39.50
2018-08-07T11:26:47.378Z,38.59
2018-08-07T11:27:47.435Z,38.55
2018-08-07T11:28:47.511Z,38.90
2018-08-07T11:29:47.607Z,38.95
2018-08-07T11:30:47.666Z,38.86
2018-08-07T11:31:47.742Z,39.31
2018-08-07T11:32:47.818Z,39.47
2018-08-07T11:33:47.895Z,39.31
2018-08-07T11:34:47.973Z,39.43
2018-08-07T11:35:48.068Z,39.72
2018-08-07T11:36:48.129Z,39.92
2018-08-07T11:37:48.202Z,39.75
2018-08-07T11:38:48.278Z,39.66
2018-08-07T11:39:48.355Z,39.19
2018-08-07T11:40:48.434Z,39.14
2018-08-07T11:41:48.509Z,39.20
2018-08-07T11:42:48.737Z,38.68
2018-08-07T11:43:48.663Z,38.84
2018-08-07T11:44:48.742Z,39.19
2018-08-07T11:45:48.818Z,39.47
2018-08-07T11:46:48.893Z,39.51
2018-08-07T11:47:48.974Z,39.48
2018-08-07T11:48:49.048Z,39.36
2018-08-07T11:49:49.125Z,39.34
2018-08-07T11:50:49.202Z,39.41
2018-08-07T11:51:49.277Z,39.16
2018-08-07T11:52:49.356Z,38.62
2018-08-07T11:53:49.433Z,38.50
2018-08-07T11:54:49.509Z,38.77
2018-08-07T11:55:49.968Z,38.60
2018-08-07T11:56:49.663Z,37.91
2018-08-07T11:57:49.741Z,37.96
2018-08-07T11:58:49.824Z,38.28
2018-08-07T11:59:50.205Z,38.75
2018-08-07T12:00:50.250Z,39.31
2018-08-07T12:01:50.102Z,39.17
2018-08-07T12:02:50.696Z,38.49
2018-08-07T12:03:50.200Z,38.56
2018-08-07T12:04:50.279Z,38.45
2018-08-07T12:05:50.354Z,38.81
2018-08-07T12:06:50.812Z,39.48
2018-08-07T12:07:50.508Z,39.91
2018-08-07T12:08:50.582Z,40.07
2018-08-07T12:09:50.661Z,39.16
2018-08-07T12:10:50.736Z,39.05
2018-08-07T12:11:50.814Z,38.81
2018-08-07T12:12:50.895Z,39.07
2018-08-07T12:13:50.966Z,39.41
2018-08-07T12:14:51.044Z,39.19
2018-08-07T12:15:51.120Z,39.17
2018-08-07T12:16:51.200Z,39.02
2018-08-07T12:17:51.274Z,39.34
2018-08-07T12:18:51.351Z,39.73
2018-08-07T12:19:51.427Z,40.18
2018-08-07T12:20:51.509Z,40.36
2018-08-07T12:21:51.585Z,40.54
2018-08-07T12:22:51.657Z,39.68
2018-08-07T12:23:51.735Z,39.38
2018-08-07T12:24:51.812Z,39.54
2018-08-07T12:25:51.894Z,39.81
2018-08-07T12:26:51.972Z,39.57
2018-08-07T12:27:52.124Z,39.66
2018-08-07T12:28:52.119Z,39.78
2018-08-07T12:29:52.196Z,39.88
2018-08-07T12:30:52.271Z,39.65
2018-08-07T12:31:52.350Z,40.06
2018-08-07T12:32:52.425Z,39.63
2018-08-07T12:33:52.505Z,40.16
2018-08-07T12:34:52.578Z,40.44
2018-08-07T12:35:52.659Z,40.29
2018-08-07T12:36:52.733Z,39.97
2018-08-07T12:37:52.810Z,39.84
2018-08-07T12:38:52.889Z,39.96
2018-08-07T12:39:52.964Z,40.03
2018-08-07T12:40:53.041Z,40.22
2018-08-07T12:41:53.118Z,39.97
2018-08-07T12:42:53.198Z,39.94
2018-08-07T12:43:53.272Z,39.91
2018-08-07T12:44:53.349Z,39.32
2018-08-07T12:45:53.425Z,39.17
2018-08-07T12:46:53.503Z,39.32
2018-08-07T12:47:53.580Z,39.44
2018-08-07T12:48:53.658Z,39.44
2018-08-07T12:49:53.733Z,39.28
2018-08-07T12:50:54.371Z,39.57
2018-08-07T12:51:53.887Z,39.47
2018-08-07T12:52:53.965Z,39.88